Amfitriti — SVCP5 — position and weather

sailwx.info

Track history (hours):
 
Tides and Currents Weather Stations Pressure Air Temp Water Temp Dewpoint Dewpoint Depression Visibility Wind Speed Wind Dir Waves Ship Positions

Amfitriti

Last reported at 2018-Feb-08 05:00 UTC. Time now 2018-Feb-18 22:24 UTC.
Position N 31°13' E 121°48'.
Warning: this ship's position is 10 days out of date.

Length 196 m; draft 6.7 m.

Type: Ship. MMSI: 241508000.

Date/timePositionNaut miles runAvg speedWind from/ knotsBaromVisibWave heightAir tempDewpointWater temp
2018-Feb-08 05:00N 31°13' E 121°48'2311.7
2018-Feb-08 03:00N 31°28' E 121°27'1811.9
2018-Feb-08 01:30N 31°40' E 121°12'5 9.2
2018-Feb-08 01:01N 31°43' E 121°08'1 1.0
2018-Feb-08 00:26N 31°43' E 121°09'0 0.2
2018-Feb-07 23:53N 31°43' E 121°09'0 0.1
2018-Feb-07 23:29N 31°43' E 121°09'0 0.0
2018-Feb-07 22:20N 31°43' E 121°09'0 0.2
2018-Feb-07 21:56N 31°43' E 121°09'0 0.2
2018-Feb-07 21:23N 31°43' E 121°09'36 3.0
2018-Feb-07 09:29N 32°01' E 120°32'  
2018-Feb-03 01:59N 32°02' E 120°31'36 8.1
2018-Feb-02 21:31N 31°44' E 121°08'0 0.4
2018-Feb-02 21:28N 31°44' E 121°08'0 0.5
2018-Feb-02 21:00N 31°44' E 121°07'0 0.1
2018-Feb-02 20:03N 31°44' E 121°07'0 0.0
2018-Feb-02 20:00N 31°44' E 121°07'0 0.0
2018-Feb-02 18:36N 31°44' E 121°07'0 0.0
2018-Feb-02 18:30N 31°44' E 121°07'0 0.0
2018-Feb-02 18:00N 31°44' E 121°07'0 0.5
2018-Feb-02 17:30N 31°44' E 121°08'0 0.0
2018-Feb-02 11:29N 31°44' E 121°08'1 2.7
2018-Feb-02 10:59N 31°43' E 121°08'4 7.7
2018-Feb-02 10:30N 31°40' E 121°12'4 8.9
2018-Feb-02 10:00N 31°37' E 121°16'4 8.7
2018-Feb-02 09:30N 31°34' E 121°19'5 9.8
2018-Feb-02 09:00N 31°31' E 121°23'5 9.3
2018-Feb-02 08:30N 31°28' E 121°28'3 6.5
2018-Feb-02 07:59N 31°26' E 121°30'5 9.7
2018-Feb-02 07:29N 31°23' E 121°35'  
Track history (hours):
 
Tides and Currents Weather Stations Pressure Air Temp Water Temp Dewpoint Dewpoint Depression Visibility Wind Speed Wind Dir Waves Ship Positions

Amfitriti

Last reported at 2018-Feb-08 05:00 UTC. Time now 2018-Feb-18 22:24 UTC.
Position N 31°13' E 121°48'.
Warning: this ship's position is 10 days out of date.

Length 196 m; draft 6.7 m.

Type: Ship. MMSI: 241508000.

Date/timePositionNaut miles runAvg speedWind from/ knotsBaromVisibWave heightAir tempDewpointWater temp
2018-Feb-08 05:00N 31°13' E 121°48'2311.7
2018-Feb-08 03:00N 31°28' E 121°27'1811.9
2018-Feb-08 01:30N 31°40' E 121°12'5 9.2
2018-Feb-08 01:01N 31°43' E 121°08'1 1.0
2018-Feb-08 00:26N 31°43' E 121°09'0 0.2
2018-Feb-07 23:53N 31°43' E 121°09'0 0.1
2018-Feb-07 23:29N 31°43' E 121°09'0 0.0
2018-Feb-07 22:20N 31°43' E 121°09'0 0.2
2018-Feb-07 21:56N 31°43' E 121°09'0 0.2
2018-Feb-07 21:23N 31°43' E 121°09'36 3.0
2018-Feb-07 09:29N 32°01' E 120°32'  
2018-Feb-03 01:59N 32°02' E 120°31'36 8.1
2018-Feb-02 21:31N 31°44' E 121°08'0 0.4
2018-Feb-02 21:28N 31°44' E 121°08'0 0.5
2018-Feb-02 21:00N 31°44' E 121°07'0 0.1
2018-Feb-02 20:03N 31°44' E 121°07'0 0.0
2018-Feb-02 20:00N 31°44' E 121°07'0 0.0
2018-Feb-02 18:36N 31°44' E 121°07'0 0.0
2018-Feb-02 18:30N 31°44' E 121°07'0 0.0
2018-Feb-02 18:00N 31°44' E 121°07'0 0.5
2018-Feb-02 17:30N 31°44' E 121°08'0 0.0
2018-Feb-02 11:29N 31°44' E 121°08'1 2.7
2018-Feb-02 10:59N 31°43' E 121°08'4 7.7
2018-Feb-02 10:30N 31°40' E 121°12'4 8.9
2018-Feb-02 10:00N 31°37' E 121°16'4 8.7
2018-Feb-02 09:30N 31°34' E 121°19'5 9.8
2018-Feb-02 09:00N 31°31' E 121°23'5 9.3
2018-Feb-02 08:30N 31°28' E 121°28'3 6.5
2018-Feb-02 07:59N 31°26' E 121°30'5 9.7
2018-Feb-02 07:29N 31°23' E 121°35'  

Dump ship's entire track history